BEARDSLEY LAKE (BRD)

Elevation: 3398' · STANISLAUS R basin · Operator: Oakdale South San Joaquin Irrigation District

Provisional data, subject to change.
Query executed Sunday at 0:04:28   clock

Select a sensor type for a plot of data.
Note: Reservoir Flows are daily averages.

Earlier

Date STORAGE    RES CHG    OUTFLOW    PPT INC   
 AF   AF   CFS   INCHES  
07/29/2016 88203 -173 601 0.00
07/30/2016 87809 -394 600 0.00
07/31/2016 87356 -453 600 0.00
08/01/2016 87109 -247 598 0.00
08/02/2016 86875 -234 600 0.00
08/03/2016 86608 -267 598 0.00
08/04/2016 86306 -302 600 0.00
08/05/2016 85985 -321 600 0.00
08/06/2016 85589 -396 600 0.00
08/07/2016 85228 -361 601 0.00
08/08/2016 84976 -252 600 0.00
08/09/2016 84711 -265 601 0.00
08/10/2016 83876 -835 600 0.00
08/11/2016 83586 -290 600 0.00
08/12/2016 83302 -284 600 0.00
08/13/2016 82938 -364 600 0.00
08/14/2016 82504 -434 599 0.00
08/15/2016 82260 -244 598 0.00
08/16/2016 82071 -189 599 0.00
08/17/2016 81850 -221 599 0.00
08/18/2016 81750 -100 600 0.00
08/19/2016 82044 294 600 0.00
08/20/2016 82354 310 599 0.00
08/21/2016 82703 349 599 0.00
08/22/2016 83039 336 599 0.00
08/23/2016 83060 21 599 0.00
08/24/2016 83100 40 596 0.00
08/25/2016 82454 -646 597 0.00
08/26/2016 81562 -892 598 0.00
08/27/2016 -- -- -- --
08/28/2016 -- -- -- --

Later | Latest

Warning! This data is preliminary and subject to revision.

Show BRD Map | Plot BRD Data | 1 Month BRD Data | Real-Time BRD Data | BRD Info